Terminal Aerodrome Forecast
Issued by NWS Buffalo, NY

Home | Current Version | Previous Version | Text Only | Print | Product List | Glossary On
Versions: 1 2 3 4 5 6 7 8 9 10 11 12 13 14 15 16 17 18 19 20 21 22 23 24 25 26 27 28
193
FTUS41 KBUF 261502 AAB
TAFART
TAF AMD
KART 261502Z 2615/2712 35008KT P6SM OVC007
     FM261800 33008KT P6SM SCT007 BKN025
     FM262100 35008KT P6SM OVC015
     FM270200 02004KT P6SM BKN025=

USA.gov is the U.S. government's official web portal to all federal, state and local government web resources and services.